Time;durP1;ratioP1;P1;durP2;ratioP2;P2;SDS_P1;SDS_P2;PMS_P1;PMS_P2;Temp;Humidity;BMP_temperature;BMP_pressure;BME280_temperature;BME280_humidity;BME280_pressure;Samples;Min_cycle;Max_cycle;Signal;HPM_P1;HPM_P2
2022/02/11 00:13:52;;;;;;;;;18.25;17.50;;;;;6.46;70.17;102457.63;6250270;22;46802;-80
2022/02/11 00:16:55;;;;;;;;;20.25;17.00;;;;;6.42;70.32;102458.34;6272690;22;45339;-82
2022/02/11 00:19:44;;;;;;;;;16.25;13.25;;;;;6.44;70.14;102472.34;6243446;22;45539;-81
2022/02/11 00:22:12;;;;;;;;;19.75;16.25;;;;;6.32;70.05;102452.72;6300262;22;45437;-81
2022/02/11 00:24:53;;;;;;;;;;;;;;;;;;;;;
2022/02/11 00:33:39;;;;;;;;;17.75;17.50;;;;;6.33;69.98;102462.34;6306370;22;45404;-81
2022/02/11 00:36:08;;;;;;;;;19.50;18.00;;;;;6.35;69.94;102471.16;6302405;22;45477;-81
2022/02/11 00:38:58;;;;;;;;;18.75;18.00;;;;;6.26;69.75;102457.69;6308323;22;45282;-82
2022/02/11 01:04:22;;;;;;;;;17.00;17.00;;;;;6.09;69.58;102466.53;6307693;22;45366;-80
2022/02/11 01:07:20;;;;;;;;;20.00;17.00;;;;;6.21;69.76;102487.09;6278862;22;45572;-79
2022/02/11 01:09:59;;;;;;;;;25.00;20.50;;;;;6.03;69.76;102467.19;6307763;22;46618;-79
2022/02/11 01:12:30;;;;;;;;;20.50;18.50;;;;;6.11;69.68;102480.59;6307043;22;45307;-78
2022/02/11 01:15:04;;;;;;;;;20.25;20.00;;;;;6.08;69.79;102483.06;6279814;22;45413;-80
2022/02/11 01:17:40;;;;;;;;;22.50;21.50;;;;;6.06;69.55;102487.34;6279746;22;45468;-78
2022/02/11 01:26:18;;;;;;;;;21.25;18.50;;;;;6.07;69.72;102510.94;6236102;22;45218;-79
2022/02/11 01:32:13;;;;;;;;;19.00;16.50;;;;;5.96;69.83;102497.41;6308821;22;46082;-79
2022/02/11 01:38:11;;;;;;;;;23.25;21.00;;;;;6.00;69.76;102511.50;6222970;22;45370;-80
2022/02/11 01:41:39;;;;;;;;;21.75;20.25;;;;;5.88;69.77;102490.94;6281709;22;45152;-78
2022/02/11 01:46:56;;;;;;;;;18.00;16.25;;;;;5.88;69.44;102508.28;6309491;22;45249;-79
2022/02/11 02:16:02;;;;;;;;;18.75;17.25;;;;;5.51;69.64;102518.03;6310541;22;45418;-80
2022/02/11 02:36:34;;;;;;;;;20.50;20.25;;;;;5.53;70.14;102558.19;6310757;22;45144;-79
2022/02/11 02:58:45;;;;;;;;;25.00;22.00;;;;;5.39;70.38;102576.63;6310504;22;45208;-79
2022/02/11 03:59:16;;;;;;;;;20.50;19.25;;;;;5.06;70.80;102644.69;6310052;22;45149;-79
2022/02/11 04:25:29;;;;;;;;;20.25;17.75;;;;;4.80;71.06;102672.06;6310025;22;45874;-79
2022/02/11 04:55:25;;;;;;;;;25.50;21.00;;;;;4.71;71.07;102698.59;6299238;22;45156;-80
2022/02/11 05:00:42;;;;;;;;;19.75;16.25;;;;;4.75;70.35;102707.47;6310208;22;45176;-78
2022/02/11 05:03:17;;;;;;;;;17.25;15.00;;;;;4.83;70.56;102732.25;6283569;22;45284;-78
2022/02/11 05:05:53;;;;;;;;;16.50;14.75;;;;;4.71;70.78;102719.47;6310427;22;45299;-78
2022/02/11 05:08:29;;;;;;;;;21.00;18.50;;;;;4.82;70.65;102735.69;6310222;22;46041;-78
2022/02/11 05:11:10;;;;;;;;;19.00;15.25;;;;;4.79;70.83;102733.81;6310977;22;45097;-78
2022/02/11 05:13:44;;;;;;;;;20.75;18.50;;;;;4.82;70.76;102740.91;6283230;22;45453;-78
2022/02/11 05:16:17;;;;;;;;;22.25;19.00;;;;;4.82;70.65;102739.19;6281978;22;45457;-78
2022/02/11 05:18:50;;;;;;;;;18.25;16.00;;;;;4.77;70.60;102734.53;6310235;22;45413;-77
2022/02/11 05:21:32;;;;;;;;;18.75;18.75;;;;;4.73;70.59;102732.56;6281520;22;45200;-78
2022/02/11 05:24:02;;;;;;;;;17.00;16.75;;;;;4.72;70.66;102736.91;6310709;22;45410;-79
2022/02/11 05:26:48;;;;;;;;;;;;;;;;;;;;;
2022/02/11 05:29:19;;;;;;;;;18.50;14.25;;;;;4.72;70.84;102738.63;6309715;22;73739;-77
2022/02/11 05:31:54;;;;;;;;;20.25;15.50;;;;;4.73;70.59;102749.16;6281813;22;45125;-78
2022/02/11 05:34:27;;;;;;;;;18.75;18.50;;;;;4.75;70.51;102755.31;6309303;22;45220;-77
2022/02/11 05:37:10;;;;;;;;;17.50;17.00;;;;;4.74;70.78;102763.97;6309959;22;45388;-77
2022/02/11 05:39:57;;;;;;;;;20.50;19.50;;;;;4.71;70.81;102761.22;6309056;22;45353;-78
2022/02/11 05:42:36;;;;;;;;;22.50;20.50;;;;;4.64;70.86;102762.56;6281305;22;45513;-80
2022/02/11 05:45:13;;;;;;;;;20.00;18.25;;;;;4.67;70.61;102772.28;6309874;22;45141;-78
2022/02/11 05:47:47;;;;;;;;;25.00;20.25;;;;;4.65;70.73;102763.47;6309672;22;45449;-80
2022/02/11 05:50:22;;;;;;;;;19.50;18.75;;;;;4.60;70.77;102762.34;6309614;22;45278;-80
2022/02/11 05:52:58;;;;;;;;;14.25;14.00;;;;;4.74;70.38;102787.44;6309650;22;45185;-80
2022/02/11 05:55:32;;;;;;;;;19.00;18.50;;;;;4.61;70.50;102766.75;6309582;22;45454;-79
2022/02/11 05:58:02;;;;;;;;;20.00;18.50;;;;;4.73;70.60;102801.31;6311722;22;45160;-80
2022/02/11 06:00:33;;;;;;;;;21.75;20.25;;;;;4.71;70.62;102783.78;6310631;22;46088;-81
2022/02/11 06:03:06;;;;;;;;;18.50;15.75;;;;;4.64;70.96;102793.00;6282650;22;45148;-80
2022/02/11 06:06:05;;;;;;;;;15.75;15.00;;;;;4.77;70.69;102804.97;6281453;22;45211;-81
2022/02/11 06:08:43;;;;;;;;;20.75;18.75;;;;;4.71;70.50;102802.06;6307850;22;45468;-79
2022/02/11 06:11:14;;;;;;;;;22.75;21.00;;;;;4.64;70.46;102780.84;6280935;22;47112;-80
2022/02/11 06:13:49;;;;;;;;;22.00;19.50;;;;;4.67;70.59;102780.09;6308986;22;45287;-80
2022/02/11 06:16:17;;;;;;;;;17.50;16.50;;;;;4.75;70.80;102804.00;6281156;22;45327;-80
2022/02/11 06:18:53;;;;;;;;;23.75;21.50;;;;;4.60;70.75;102778.00;6309785;22;45310;-81
2022/02/11 06:21:32;;;;;;;;;20.00;18.00;;;;;4.61;70.32;102792.84;6312421;22;45220;-79
2022/02/11 06:24:01;;;;;;;;;22.50;22.00;;;;;4.64;70.19;102793.88;6313678;22;45201;-79
2022/02/11 06:26:40;;;;;;;;;19.00;16.75;;;;;4.68;70.44;102814.91;6312977;22;45468;-78
2022/02/11 06:29:13;;;;;;;;;18.25;18.25;;;;;4.72;70.56;102820.38;6313154;22;45168;-79
2022/02/11 06:31:56;;;;;;;;;20.50;20.00;;;;;4.74;70.14;102817.88;6313404;22;46481;-80
2022/02/11 06:34:21;;;;;;;;;23.50;20.75;;;;;4.78;70.25;102820.69;6315947;22;45462;-79
2022/02/11 06:36:54;;;;;;;;;24.50;22.75;;;;;4.65;69.83;102805.22;6316576;22;44726;-78
2022/02/11 06:39:24;;;;;;;;;25.75;20.00;;;;;4.64;70.24;102809.53;6316785;22;45172;-79
2022/02/11 06:42:02;;;;;;;;;24.25;22.50;;;;;4.63;70.25;102820.78;6313949;22;46214;-80
2022/02/11 06:44:29;;;;;;;;;25.25;23.00;;;;;4.66;70.24;102829.59;6281191;22;45230;-80
2022/02/11 06:47:10;;;;;;;;;28.50;24.00;;;;;4.59;70.29;102818.81;6309408;22;45376;-79
2022/02/11 06:49:46;;;;;;;;;27.25;23.00;;;;;4.72;70.61;102849.09;6309348;22;45199;-79
2022/02/11 06:52:11;;;;;;;;;24.00;21.50;;;;;4.71;70.53;102842.09;6310471;22;46223;-79
2022/02/11 06:54:44;;;;;;;;;24.75;21.50;;;;;4.56;70.88;102820.38;6310891;22;45369;-78
2022/02/11 06:57:37;;;;;;;;;22.50;20.25;;;;;4.69;70.71;102848.94;6311163;22;45155;-80
2022/02/11 07:00:17;;;;;;;;;28.75;21.50;;;;;4.60;70.60;102838.00;6282208;22;45542;-80
2022/02/11 07:02:53;;;;;;;;;23.50;22.00;;;;;4.68;70.46;102860.19;6281565;22;45502;-80
2022/02/11 07:05:37;;;;;;;;;28.50;25.00;;;;;4.72;70.87;102879.50;6310837;22;45363;-81
2022/02/11 07:08:11;;;;;;;;;25.00;21.25;;;;;4.68;70.43;102878.44;6310353;22;45430;-81
2022/02/11 07:10:43;;;;;;;;;30.00;24.75;;;;;4.68;70.00;102880.13;6280071;22;45555;-80
2022/02/11 07:13:13;;;;;;;;;24.00;22.25;;;;;4.69;70.12;102887.16;6310377;22;46010;-81
2022/02/11 07:15:53;;;;;;;;;27.75;22.00;;;;;4.79;70.40;102913.84;6281824;22;45744;-82
2022/02/11 07:18:25;;;;;;;;;25.00;20.00;;;;;4.73;70.04;102907.38;6282295;22;45292;-80
2022/02/11 07:21:04;;;;;;;;;24.00;22.00;;;;;4.70;70.44;102908.09;6309779;22;45323;-80
2022/02/11 07:23:43;;;;;;;;;25.75;22.00;;;;;4.76;70.35;102926.72;6309995;22;45285;-80
2022/02/11 07:26:20;;;;;;;;;28.75;24.50;;;;;4.76;70.55;102929.34;6309952;22;45286;-80
2022/02/11 07:28:55;;;;;;;;;26.00;20.00;;;;;4.63;70.20;102909.50;6310354;22;45322;-80
2022/02/11 07:31:26;;;;;;;;;25.25;25.25;;;;;4.69;70.20;102921.06;6309629;22;45420;-80
2022/02/11 07:34:11;;;;;;;;;28.50;23.75;;;;;4.70;70.68;102928.97;6281728;22;46807;-79
2022/02/11 07:36:50;;;;;;;;;30.50;26.00;;;;;4.59;70.08;102922.28;6281252;22;45277;-79
2022/02/11 07:39:22;;;;;;;;;32.25;22.50;;;;;4.66;70.26;102958.34;6310053;22;45393;-80
2022/02/11 07:42:06;;;;;;;;;27.25;26.25;;;;;4.50;70.22;102932.19;6310008;22;45549;-80
2022/02/11 07:44:43;;;;;;;;;30.75;26.50;;;;;4.61;70.24;102946.72;6310171;22;45462;-79
2022/02/11 07:47:16;;;;;;;;;24.00;21.75;;;;;4.53;70.23;102928.03;6309545;22;45282;-80
2022/02/11 07:49:56;;;;;;;;;23.50;22.00;;;;;4.59;70.55;102946.63;6282092;22;45281;-80
2022/02/11 07:52:38;;;;;;;;;27.00;23.75;;;;;4.54;70.32;102941.97;6282027;22;45322;-80
2022/02/11 07:55:15;;;;;;;;;27.25;23.00;;;;;4.58;70.09;102951.78;6309501;22;46093;-80
2022/02/11 07:57:58;;;;;;;;;24.25;22.50;;;;;4.75;70.78;102982.31;6309436;22;45371;-80
2022/02/11 08:00:33;;;;;;;;;25.00;23.25;;;;;4.70;70.84;102981.16;6309895;22;45375;-80
2022/02/11 08:03:01;;;;;;;;;26.75;26.75;;;;;4.76;70.70;102988.47;6281127;22;45398;-80
2022/02/11 08:05:37;;;;;;;;;29.25;26.00;;;;;4.81;70.39;102995.72;6309272;22;46362;-80
2022/02/11 08:08:23;;;;;;;;;19.75;19.75;;;;;4.73;70.70;102970.91;6281466;22;45417;-81
2022/02/11 08:11:13;;;;;;;;;28.50;24.75;;;;;4.92;70.28;102995.41;6310681;22;45366;-80
2022/02/11 08:13:49;;;;;;;;;32.50;29.00;;;;;4.84;70.10;102980.25;6309315;22;45314;-80
2022/02/11 08:16:25;;;;;;;;;24.50;23.25;;;;;4.85;70.01;102995.06;6308327;22;45472;-80
2022/02/11 08:19:11;;;;;;;;;26.25;24.50;;;;;4.87;70.17;102997.78;6280531;22;45306;-80
2022/02/11 08:21:47;;;;;;;;;28.75;25.25;;;;;4.85;70.08;103002.00;6280552;22;45445;-83
2022/02/11 08:27:14;;;;;;;;;24.75;23.75;;;;;4.93;69.63;103007.66;6291699;22;45161;-80
2022/02/11 08:29:44;;;;;;;;;25.25;21.50;;;;;5.04;69.75;103030.03;6308341;22;45368;-82
2022/02/11 08:32:34;;;;;;;;;;;;;;;;;;;;;
2022/02/11 08:35:07;;;;;;;;;27.25;23.25;;;;;4.85;69.56;103007.22;6307363;22;71572;-80
2022/02/11 08:37:47;;;;;;;;;29.50;24.00;;;;;4.94;69.90;103028.59;6281315;22;46713;-80
2022/02/11 08:40:26;;;;;;;;;26.50;20.50;;;;;4.86;69.69;103020.38;6281589;22;45381;-80
2022/02/11 08:43:18;;;;;;;;;22.25;18.25;;;;;4.99;70.15;103036.72;6281667;22;45209;-81
2022/02/11 08:46:04;;;;;;;;;;;;;;;;;;;;;
2022/02/11 08:48:40;;;;;;;;;24.25;21.50;;;;;4.97;70.07;103034.03;6308356;22;75724;-81
2022/02/11 08:51:21;;;;;;;;;20.25;19.50;;;;;4.94;69.86;103022.50;6280117;22;45324;-78
2022/02/11 08:53:51;;;;;;;;;21.00;19.00;;;;;5.08;69.82;103043.34;6280713;22;45496;-81
2022/02/11 08:56:25;;;;;;;;;24.25;21.50;;;;;5.14;69.75;103054.94;6309210;22;45165;-81
2022/02/11 08:59:01;;;;;;;;;27.75;26.25;;;;;5.11;70.08;103045.25;6281125;22;47554;-81
2022/02/11 09:02:08;;;;;;;;;26.00;21.50;;;;;5.16;69.99;103053.31;6308735;22;45190;-80
2022/02/11 09:04:55;;;;;;;;;29.75;27.75;;;;;5.18;69.58;103044.75;6278811;22;44813;-80
2022/02/11 09:07:35;;;;;;;;;20.00;19.00;;;;;5.25;69.71;103062.56;6308714;22;45330;-81
2022/02/11 09:10:15;;;;;;;;;23.00;22.50;;;;;5.34;69.72;103074.31;6309059;22;46279;-82
2022/02/11 09:12:54;;;;;;;;;21.25;21.00;;;;;5.21;69.43;103062.28;6280768;22;45227;-80
2022/02/11 09:15:52;;;;;;;;;23.25;19.25;;;;;5.18;69.83;103054.28;6308976;22;45136;-81
2022/02/11 09:18:51;;;;;;;;;27.75;22.00;;;;;5.25;69.91;103059.94;6308690;22;45166;-80
2022/02/11 09:21:37;;;;;;;;;23.50;23.00;;;;;5.43;69.64;103093.13;6279897;22;46646;-80
2022/02/11 09:24:39;;;;;;;;;21.50;16.25;;;;;5.37;69.59;103071.88;6279488;22;45454;-84
2022/02/11 09:27:35;;;;;;;;;20.00;19.00;;;;;5.55;69.60;103109.47;6302860;22;45319;-82
2022/02/11 09:30:38;;;;;;;;;19.50;19.25;;;;;5.51;69.43;103097.97;6277914;22;45437;-81
2022/02/11 09:34:33;;;;;;;;;;;;;;;;;;;;;
2022/02/11 09:37:14;;;;;;;;;24.25;20.00;;;;;5.63;69.35;103087.25;6287181;22;45801;-80
2022/02/11 09:40:22;;;;;;;;;22.50;16.25;;;;;5.70;69.64;103092.03;6279843;22;45290;-80
2022/02/11 09:43:25;;;;;;;;;;;;;;;;;;;;;
2022/02/11 09:45:58;;;;;;;;;24.50;22.00;;;;;5.95;69.04;103116.88;6306764;22;75650;-80
2022/02/11 09:48:29;;;;;;;;;25.75;23.75;;;;;6.00;69.21;103123.28;6278629;22;45346;-80
2022/02/11 09:51:02;;;;;;;;;24.25;23.25;;;;;5.94;69.02;103102.94;6307729;22;45446;-80
2022/02/11 09:53:45;;;;;;;;;25.25;25.25;;;;;6.04;69.18;103112.16;6278978;22;45354;-80
2022/02/11 09:56:58;;;;;;;;;25.50;25.50;;;;;6.19;69.01;103118.19;6303154;22;47808;-79
2022/02/11 09:59:37;;;;;;;;;27.00;22.75;;;;;6.17;68.99;103100.63;6305394;22;45284;-80
2022/02/11 10:02:09;;;;;;;;;24.75;23.50;;;;;6.30;68.84;103110.91;6279345;22;45428;-81
2022/02/11 10:04:36;;;;;;;;;21.00;20.75;;;;;6.30;68.80;103105.66;6307254;22;45385;-80
2022/02/11 10:07:17;;;;;;;;;;;;;;;;;;;;;
2022/02/11 10:10:01;;;;;;;;;24.00;22.00;;;;;6.73;68.61;103135.75;6304012;22;72782;-82
2022/02/11 10:13:01;;;;;;;;;20.50;17.75;;;;;6.74;68.24;103117.53;6306163;22;45275;-81
2022/02/11 10:15:37;;;;;;;;;24.75;24.00;;;;;6.96;67.89;103147.41;6278300;22;45758;-81
2022/02/11 10:18:31;;;;;;;;;21.25;19.25;;;;;7.08;67.94;103148.00;6306312;22;46211;-84
2022/02/11 10:21:17;;;;;;;;;22.25;21.75;;;;;7.15;68.05;103136.09;6269884;22;45300;-84
2022/02/11 10:24:06;;;;;;;;;25.25;22.50;;;;;7.25;67.72;103125.25;6305470;22;45337;-80
2022/02/11 10:26:54;;;;;;;;;22.50;19.00;;;;;7.51;67.30;103150.06;6276661;22;45876;-79
2022/02/11 10:29:50;;;;;;;;;24.25;22.50;;;;;7.66;66.99;103157.78;6278486;22;47483;-81
2022/02/11 10:32:54;;;;;;;;;17.25;12.00;;;;;7.77;67.03;103158.28;6307142;22;45333;-78
2022/02/11 10:35:46;;;;;;;;;21.50;18.25;;;;;7.78;66.64;103133.84;6279557;22;45105;-82
2022/02/11 10:38:54;;;;;;;;;22.25;19.50;;;;;8.01;66.25;103150.66;6277265;22;45742;-80
2022/02/11 10:41:27;;;;;;;;;;;;;;;;;;;;;
2022/02/11 10:44:31;;;;;;;;;24.50;21.00;;;;;8.31;65.40;103165.16;6306926;22;72615;-80
2022/02/11 10:47:40;;;;;;;;;;;;;;;;;;;;;
2022/02/11 10:50:27;;;;;;;;;19.75;16.00;;;;;8.49;64.50;103161.56;6306258;22;72895;-82
2022/02/11 10:56:01;;;;;;;;;15.50;15.00;;;;;8.70;63.88;103138.88;6212253;22;45428;-81
2022/02/11 11:02:45;;;;;;;;;;;;;;;;;;;;;
2022/02/11 11:05:26;;;;;;;;;15.75;14.50;;;;;9.12;62.47;103132.72;6305350;22;73240;-81
2022/02/11 11:08:00;;;;;;;;;15.00;14.75;;;;;9.30;62.49;103150.97;6278891;22;45474;-82
2022/02/11 11:11:09;;;;;;;;;14.75;12.50;;;;;9.33;61.65;103146.75;6280509;22;45401;-81
2022/02/11 11:13:48;;;;;;;;;17.50;17.00;;;;;9.48;61.48;103156.97;6307403;22;45160;-82
2022/02/11 11:20:37;;;;;;;;;;;;;;;;;;;;;
2022/02/11 11:23:39;;;;;;;;;20.00;18.75;;;;;9.96;60.83;103151.81;6307468;22;67564;-83
2022/02/11 11:26:37;;;;;;;;;15.50;15.50;;;;;10.14;60.21;103141.97;6280135;22;45175;-81
2022/02/11 11:29:44;;;;;;;;;;;;;;;;;;;;;
2022/02/11 11:32:40;;;;;;;;;16.00;13.75;;;;;10.59;59.54;103143.59;6307331;22;72049;-82
2022/02/11 11:35:40;;;;;;;;;;;;;;;;;;;;;
2022/02/11 11:43:00;;;;;;;;;;;;;;;;;;;;;
2022/02/11 11:45:42;;;;;;;;;9.25;8.00;;;;;10.91;55.25;103144.69;6297076;22;45534;-81
2022/02/11 11:49:04;;;;;;;;;5.75;3.75;;;;;10.89;54.67;103150.75;6281096;22;45314;-82
2022/02/11 11:52:20;;;;;;;;;;;;;;;;;;;;;
2022/02/11 11:55:20;;;;;;;;;8.00;6.00;;;;;11.25;55.04;103144.06;6296821;22;46680;-83
2022/02/11 11:58:19;;;;;;;;;6.50;6.00;;;;;11.33;53.59;103117.03;6211604;22;45265;-84
2022/02/11 12:01:22;;;;;;;;;;;;;;;;;;;;;
2022/02/11 12:04:56;;;;;;;;;5.00;4.00;;;;;11.88;52.51;103137.22;6307248;22;71074;-81
2022/02/11 12:08:12;;;;;;;;;;;;;;;;;;;;;
2022/02/11 12:18:15;;;;;;;;;9.00;8.00;;;;;13.54;50.15;103121.28;6285304;22;45194;-82
2022/02/11 12:21:06;;;;;;;;;;;;;;;;;;;;;
2022/02/11 12:30:27;;;;;;;;;;;;;;;;;;;;;
2022/02/11 12:33:38;;;;;;;;;;;;;;;;;;;;;
2022/02/11 12:36:46;;;;;;;;;8.50;7.50;;;;;12.79;47.71;103117.72;6308035;22;72607;-82
2022/02/11 12:43:25;;;;;;;;;;;;;;;;;;;;;
2022/02/11 12:46:26;;;;;;;;;;;;;;;;;;;;;
2022/02/11 12:49:55;;;;;;;;;;;;;;;;;;;;;
2022/02/11 12:52:25;;;;;;;;;;;;;;;;;;;;;
2022/02/11 12:55:22;;;;;;;;;;;;;;;;;;;;;
2022/02/11 12:58:11;;;;;;;;;;;;;;;;;;;;;
2022/02/11 13:01:30;;;;;;;;;;;;;;;;;;;;;
2022/02/11 13:07:43;;;;;;;;;;;;;;;;;;;;;
2022/02/11 13:14:09;;;;;;;;;13.50;12.00;;;;;14.17;44.91;103095.25;6122688;23;45319;-84
2022/02/11 13:20:30;;;;;;;;;;;;;;;;;;;;;
2022/02/11 13:24:12;;;;;;;;;;;;;;;;;;;;;
2022/02/11 13:27:20;;;;;;;;;6.75;6.75;;;;;16.28;42.19;103078.94;6299585;22;45102;-82
2022/02/11 13:30:45;;;;;;;;;;;;;;;;;;;;;
2022/02/11 13:33:41;;;;;;;;;4.33;3.00;;;;;17.26;40.48;103078.88;6158018;23;70943;-83
2022/02/11 13:37:06;;;;;;;;;;;;;;;;;;;;;
2022/02/11 13:40:01;;;;;;;;;5.33;5.33;;;;;18.08;39.80;103073.91;6306545;22;72760;-83
2022/02/11 13:43:12;;;;;;;;;;;;;;;;;;;;;
2022/02/11 13:46:26;;;;;;;;;;;;;;;;;;;;;
2022/02/11 13:49:21;;;;;;;;;7.00;7.00;;;;;19.00;37.64;103069.53;6303785;22;74136;-82
2022/02/11 13:55:51;;;;;;;;;5.67;4.33;;;;;18.27;37.14;103065.97;6308585;22;45199;-83
2022/02/11 13:58:46;;;;;;;;;;;;;;;;;;;;;
2022/02/11 14:06:02;;;;;;;;;;;;;;;;;;;;;
2022/02/11 14:09:18;;;;;;;;;;;;;;;;;;;;;
2022/02/11 14:12:30;;;;;;;;;;;;;;;;;;;;;
2022/02/11 14:15:43;;;;;;;;;7.50;7.50;;;;;15.15;38.72;103067.75;6299665;22;75014;-82
2022/02/11 14:18:43;;;;;;;;;;;;;;;;;;;;;
2022/02/11 14:22:31;;;;;;;;;16.00;15.00;;;;;14.43;38.96;103056.84;6307298;22;68845;-82
2022/02/11 14:25:23;;;;;;;;;;;;;;;;;;;;;
2022/02/11 14:28:27;;;;;;;;;;;;;;;;;;;;;
2022/02/11 14:31:33;;;;;;;;;;;;;;;;;;;;;
2022/02/11 14:37:26;;;;;;;;;5.00;5.00;;;;;13.34;41.10;103056.44;6181276;23;45376;-82
2022/02/11 14:40:31;;;;;;;;;6.50;4.00;;;;;13.31;41.17;103051.06;6279356;22;47642;-82
2022/02/11 14:43:46;;;;;;;;;4.75;4.00;;;;;13.29;41.33;103058.09;6309178;22;45088;-82
2022/02/11 14:47:26;;;;;;;;;;;;;;;;;;;;;
2022/02/11 14:53:47;;;;;;;;;7.00;4.00;;;;;12.99;42.20;103065.34;6285322;22;46590;-82
2022/02/11 14:56:55;;;;;;;;;;;;;;;;;;;;;
2022/02/11 15:02:56;;;;;;;;;;;;;;;;;;;;;
2022/02/11 15:06:12;;;;;;;;;;;;;;;;;;;;;
2022/02/11 15:12:09;;;;;;;;;;;;;;;;;;;;;
2022/02/11 15:15:33;;;;;;;;;5.00;4.00;;;;;13.89;42.02;103062.88;6308039;22;72604;-84
2022/02/11 15:18:09;;;;;;;;;4.50;4.50;;;;;15.52;41.91;103055.88;6292395;22;45216;-84
2022/02/11 15:21:31;;;;;;;;;;;;;;;;;;;;;
2022/02/11 15:24:50;;;;;;;;;;;;;;;;;;;;;
2022/02/11 15:34:11;;;;;;;;;8.00;7.67;;;;;21.69;33.15;103020.34;6277440;22;45296;-82
2022/02/11 15:37:49;;;;;;;;;;;;;;;;;;;;;
2022/02/11 15:40:33;;;;;;;;;;;;;;;;;;;;;
2022/02/11 15:43:50;;;;;;;;;;;;;;;;;;;;;
2022/02/11 15:46:44;;;;;;;;;;;;;;;;;;;;;
2022/02/11 16:00:26;;;;;;;;;;;;;;;;;;;;;
2022/02/11 16:04:00;;;;;;;;;;;;;;;;;;;;;
2022/02/11 16:07:23;;;;;;;;;;;;;;;;;;;;;
2022/02/11 16:10:22;;;;;;;;;3.67;3.67;;;;;15.28;35.55;103021.94;6308150;22;73996;-83
2022/02/11 16:23:41;;;;;;;;;;;;;;;;;;;;;
2022/02/11 16:30:34;;;;;;;;;;;;;;;;;;;;;
2022/02/11 16:34:05;;;;;;;;;;;;;;;;;;;;;
2022/02/11 16:37:19;;;;;;;;;;;;;;;;;;;;;
2022/02/11 16:40:40;;;;;;;;;;;;;;;;;;;;;
2022/02/11 16:50:57;;;;;;;;;9.25;8.75;;;;;11.84;41.43;103029.72;6253115;22;46356;-83
2022/02/11 16:54:09;;;;;;;;;;;;;;;;;;;;;
2022/02/11 16:57:10;;;;;;;;;;;;;;;;;;;;;
2022/02/11 17:00:33;;;;;;;;;;;;;;;;;;;;;
2022/02/11 17:10:20;;;;;;;;;;;;;;;;;;;;;
2022/02/11 17:13:39;;;;;;;;;13.50;12.25;;;;;10.70;44.04;103043.84;6275536;22;71379;-83
2022/02/11 17:16:30;;;;;;;;;10.75;10.50;;;;;10.56;44.55;103036.41;6221757;22;45512;-83
2022/02/11 17:22:53;;;;;;;;;;;;;;;;;;;;;
2022/02/11 17:26:09;;;;;;;;;;;;;;;;;;;;;
2022/02/11 17:42:12;;;;;;;;;;;;;;;;;;;;;
2022/02/11 17:45:30;;;;;;;;;;;;;;;;;;;;;
2022/02/11 17:52:34;;;;;;;;;;;;;;;;;;;;;
2022/02/11 18:02:23;;;;;;;;;24.75;18.50;;;;;9.50;48.87;103058.91;6287279;22;45389;-84
2022/02/11 18:05:22;;;;;;;;;;;;;;;;;;;;;
2022/02/11 18:12:31;;;;;;;;;;;;;;;;;;;;;
2022/02/11 18:15:49;;;;;;;;;22.25;16.00;;;;;9.35;49.87;103074.06;6302816;22;68795;-82
2022/02/11 18:21:56;;;;;;;;;;;;;;;;;;;;;
2022/02/11 18:29:25;;;;;;;;;;;;;;;;;;;;;
2022/02/11 18:32:00;;;;;;;;;;;;;;;;;;;;;
2022/02/11 18:46:01;;;;;;;;;;;;;;;;;;;;;
2022/02/11 19:06:45;;;;;;;;;;;;;;;;;;;;;
2022/02/11 19:10:01;;;;;;;;;;;;;;;;;;;;;
2022/02/11 19:13:41;;;;;;;;;;;;;;;;;;;;;
2022/02/11 19:27:42;;;;;;;;;;;;;;;;;;;;;
2022/02/11 19:30:45;;;;;;;;;19.00;17.00;;;;;8.56;50.35;103058.63;6307822;22;75627;-83
2022/02/11 19:40:15;;;;;;;;;23.50;20.50;;;;;8.45;50.40;103052.94;6182584;23;45281;-82
2022/02/11 19:50:28;;;;;;;;;32.75;28.75;;;;;8.53;50.54;103062.03;6260803;22;45185;-83
2022/02/11 19:53:40;;;;;;;;;;;;;;;;;;;;;
2022/02/11 20:00:28;;;;;;;;;;;;;;;;;;;;;
2022/02/11 20:07:43;;;;;;;;;;;;;;;;;;;;;
2022/02/11 20:13:53;;;;;;;;;32.75;30.25;;;;;8.23;50.95;103060.66;6246959;22;45441;-81
2022/02/11 20:17:10;;;;;;;;;;;;;;;;;;;;;
2022/02/11 20:20:02;;;;;;;;;29.50;27.00;;;;;8.24;51.20;103063.38;6304747;22;72667;-82
2022/02/11 20:23:25;;;;;;;;;39.00;36.25;;;;;8.30;51.16;103068.88;6253129;22;47459;-82
2022/02/11 20:26:51;;;;;;;;;;;;;;;;;;;;;
2022/02/11 20:30:04;;;;;;;;;;;;;;;;;;;;;
2022/02/11 20:33:45;;;;;;;;;;;;;;;;;;;;;
2022/02/11 20:36:17;;;;;;;;;;;;;;;;;;;;;
2022/02/11 20:39:49;;;;;;;;;;;;;;;;;;;;;
2022/02/11 20:43:10;;;;;;;;;44.25;39.00;;;;;8.02;52.55;103056.31;6251850;22;45515;-82
2022/02/11 20:46:35;;;;;;;;;45.25;39.75;;;;;8.10;52.31;103070.66;6300124;22;45343;-82
2022/02/11 20:49:35;;;;;;;;;54.00;44.50;;;;;8.06;52.66;103073.06;6273361;22;45854;-81
2022/02/11 20:55:36;;;;;;;;;52.00;43.50;;;;;7.93;52.89;103068.97;6289522;22;45915;-82
2022/02/11 20:58:44;;;;;;;;;;;;;;;;;;;;;
2022/02/11 21:04:57;;;;;;;;;;;;;;;;;;;;;
2022/02/11 21:11:42;;;;;;;;;;;;;;;;;;;;;
2022/02/11 21:14:43;;;;;;;;;;;;;;;;;;;;;
2022/02/11 21:21:35;;;;;;;;;;;;;;;;;;;;;
2022/02/11 21:31:24;;;;;;;;;;;;;;;;;;;;;
2022/02/11 21:34:49;;;;;;;;;;;;;;;;;;;;;
2022/02/11 21:44:24;;;;;;;;;;;;;;;;;;;;;
2022/02/11 21:47:37;;;;;;;;;;;;;;;;;;;;;
2022/02/11 21:54:17;;;;;;;;;;;;;;;;;;;;;
2022/02/11 22:01:36;;;;;;;;;;;;;;;;;;;;;
2022/02/11 22:04:36;;;;;;;;;62.50;48.00;;;;;7.21;55.82;103029.88;6165161;23;72818;-81
2022/02/11 22:08:12;;;;;;;;;;;;;;;;;;;;;
2022/02/11 22:11:48;;;;;;;;;;;;;;;;;;;;;
2022/02/11 22:18:03;;;;;;;;;;;;;;;;;;;;;
2022/02/11 22:27:54;;;;;;;;;;;;;;;;;;;;;
2022/02/11 22:31:24;;;;;;;;;;;;;;;;;;;;;
2022/02/11 22:34:16;;;;;;;;;;;;;;;;;;;;;
2022/02/11 22:41:15;;;;;;;;;;;;;;;;;;;;;
2022/02/11 22:44:27;;;;;;;;;;;;;;;;;;;;;
2022/02/11 22:47:33;;;;;;;;;71.50;58.25;;;;;6.86;56.44;103012.50;6309179;22;75306;-80
2022/02/11 22:53:58;;;;;;;;;;;;;;;;;;;;;
2022/02/11 23:00:11;;;;;;;;;67.00;54.25;;;;;6.89;56.84;103007.41;6286254;22;45230;-81
2022/02/11 23:10:24;;;;;;;;;;;;;;;;;;;;;
2022/02/11 23:16:28;;;;;;;;;;;;;;;;;;;;;
2022/02/11 23:20:00;;;;;;;;;;;;;;;;;;;;;
2022/02/11 23:23:29;;;;;;;;;;;;;;;;;;;;;
2022/02/11 23:27:02;;;;;;;;;;;;;;;;;;;;;
2022/02/11 23:33:52;;;;;;;;;;;;;;;;;;;;;
2022/02/11 23:37:17;;;;;;;;;;;;;;;;;;;;;
2022/02/11 23:47:14;;;;;;;;;;;;;;;;;;;;;
2022/02/11 23:50:45;;;;;;;;;76.00;58.00;;;;;6.70;57.59;102989.03;6273899;22;71578;-81
2022/02/11 23:54:05;;;;;;;;;71.75;55.25;;;;;6.66;57.68;102987.09;6272339;22;45932;-82
2022/02/11 23:57:14;;;;;;;;;;;;;;;;;;;;;
